Time,TemperatureF,DewpointF,PressureIn,WindDirection,WindDirectionDegrees,WindSpeedMPH,WindSpeedGustMPH,Humidity,HourlyPrecipIn,Conditions,Clouds,dailyrainin,SolarRadiationWatts/m^2,SoftwareType,DateUTC
2013-07-10 00:04:00,70.8,70.5,30.01,South,178,0.0,0.0,99,0.00,,,0.00,0,Wunderground v.1.15,2013-07-10 04:04:00,
2013-07-10 00:14:00,70.8,70.5,30.01,South,183,0.0,1.0,99,0.00,,,0.00,0,Wunderground v.1.15,2013-07-10 04:14:00,
2013-07-10 00:19:00,70.9,70.6,30.01,South,183,0.0,1.0,99,0.00,,,0.00,0,Wunderground v.1.15,2013-07-10 04:19:00,
2013-07-10 00:29:00,70.9,70.6,30.00,South,183,0.0,0.0,99,0.00,,,0.00,0,Wunderground v.1.15,2013-07-10 04:29:00,
2013-07-10 00:34:00,71.0,70.7,30.00,SE,143,0.0,3.0,99,0.00,,,0.00,0,Wunderground v.1.15,2013-07-10 04:34:00,
2013-07-10 00:39:00,71.0,70.7,30.00,SE,143,0.0,3.0,99,0.00,,,0.00,0,Wunderground v.1.15,2013-07-10 04:39:00,
2013-07-10 00:44:00,71.0,70.7,30.00,SSE,153,0.0,0.0,99,0.00,,,0.00,0,Wunderground v.1.15,2013-07-10 04:44:00,
2013-07-10 00:49:00,71.0,70.7,29.99,SSE,153,0.0,0.0,99,0.00,,,0.00,0,Wunderground v.1.15,2013-07-10 04:49:00,
2013-07-10 00:54:00,71.0,70.7,29.99,SSE,153,0.0,0.0,99,0.00,,,0.00,0,Wunderground v.1.15,2013-07-10 04:54:00,
2013-07-10 00:59:00,71.0,70.7,29.99,SSE,153,0.0,0.0,99,0.00,,,0.00,0,Wunderground v.1.15,2013-07-10 04:59:00,
2013-07-10 01:09:00,71.0,70.7,29.99,SSE,153,0.0,0.0,99,0.00,,,0.00,0,Wunderground v.1.15,2013-07-10 05:09:00,
2013-07-10 01:14:00,71.0,70.7,29.99,SSE,153,0.0,0.0,99,0.00,,,0.00,0,Wunderground v.1.15,2013-07-10 05:14:00,
2013-07-10 01:24:00,71.0,70.7,29.99,SSE,153,0.0,0.0,99,0.00,,,0.00,0,Wunderground v.1.15,2013-07-10 05:24:00,
2013-07-10 01:34:00,71.0,70.7,29.98,SSE,153,0.0,0.0,99,0.00,,,0.00,0,Wunderground v.1.15,2013-07-10 05:34:00,
2013-07-10 01:44:00,70.9,70.6,29.98,SSE,153,0.0,0.0,99,0.00,,,0.00,0,Wunderground v.1.15,2013-07-10 05:44:00,
2013-07-10 01:49:00,70.9,70.6,29.98,SSE,153,0.0,0.0,99,0.00,,,0.00,0,Wunderground v.1.15,2013-07-10 05:49:00,
2013-07-10 01:59:00,70.8,70.5,29.98,SSE,153,0.0,0.0,99,0.00,,,0.00,0,Wunderground v.1.15,2013-07-10 05:59:00,
2013-07-10 02:04:00,70.8,70.5,29.98,SSE,153,0.0,0.0,99,0.00,,,0.00,0,Wunderground v.1.15,2013-07-10 06:04:00,
2013-07-10 02:09:00,70.8,70.5,29.98,SSE,153,0.0,0.0,99,0.00,,,0.00,0,Wunderground v.1.15,2013-07-10 06:09:00,
2013-07-10 02:14:00,70.8,70.5,29.98,SSE,153,0.0,0.0,99,0.00,,,0.00,0,Wunderground v.1.15,2013-07-10 06:14:00,
2013-07-10 02:19:00,70.7,70.4,29.98,SSE,153,0.0,0.0,99,0.00,,,0.00,0,Wunderground v.1.15,2013-07-10 06:19:00,
2013-07-10 02:24:00,70.7,70.4,29.98,SSE,153,0.0,0.0,99,0.00,,,0.00,0,Wunderground v.1.15,2013-07-10 06:24:00,
2013-07-10 02:34:00,70.6,70.6,29.97,SSE,153,0.0,0.0,100,0.00,,,0.00,0,Wunderground v.1.15,2013-07-10 06:34:00,
2013-07-10 02:39:00,70.6,70.6,29.97,SSE,152,0.0,0.0,100,0.00,,,0.00,0,Wunderground v.1.15,2013-07-10 06:39:00,
2013-07-10 02:49:00,70.6,70.6,29.97,SE,142,0.0,0.0,100,0.00,,,0.00,0,Wunderground v.1.15,2013-07-10 06:49:00,
2013-07-10 02:59:00,70.5,70.2,29.96,SE,142,0.0,0.0,99,0.00,,,0.00,0,Wunderground v.1.15,2013-07-10 06:59:00,
2013-07-10 03:09:00,70.4,70.1,29.96,SE,142,0.0,0.0,99,0.00,,,0.00,0,Wunderground v.1.15,2013-07-10 07:09:00,
2013-07-10 03:19:00,70.4,70.1,29.95,SE,142,0.0,0.0,99,0.00,,,0.00,0,Wunderground v.1.15,2013-07-10 07:19:00,
2013-07-10 03:24:00,70.3,70.0,29.95,SE,142,0.0,0.0,99,0.00,,,0.00,0,Wunderground v.1.15,2013-07-10 07:24:00,
2013-07-10 03:34:00,70.2,69.9,29.95,SE,142,0.0,1.0,99,0.00,,,0.00,0,Wunderground v.1.15,2013-07-10 07:34:00,
2013-07-10 03:39:00,70.2,70.2,29.95,SE,142,0.0,1.0,100,0.00,,,0.00,0,Wunderground v.1.15,2013-07-10 07:39:00,
2013-07-10 03:44:00,70.2,70.2,29.95,SE,142,0.0,0.0,100,0.00,,,0.00,0,Wunderground v.1.15,2013-07-10 07:44:00,
2013-07-10 03:49:00,70.2,70.2,29.95,SSE,167,0.0,0.0,100,0.00,,,0.00,0,Wunderground v.1.15,2013-07-10 07:49:00,
2013-07-10 03:54:00,70.1,70.1,29.95,SSE,167,0.0,0.0,100,0.00,,,0.00,0,Wunderground v.1.15,2013-07-10 07:54:00,
2013-07-10 04:04:00,70.1,70.1,29.95,SSE,167,0.0,0.0,100,0.00,,,0.00,0,Wunderground v.1.15,2013-07-10 08:04:00,
2013-07-10 04:09:00,70.1,70.1,29.95,SSE,167,0.0,0.0,100,0.00,,,0.01,0,Wunderground v.1.15,2013-07-10 08:09:00,
2013-07-10 04:19:00,70.0,70.0,29.95,SSE,167,0.0,0.0,100,0.00,,,0.01,0,Wunderground v.1.15,2013-07-10 08:19:00,
2013-07-10 04:24:00,69.9,69.9,29.95,SSE,167,0.0,0.0,100,0.00,,,0.01,0,Wunderground v.1.15,2013-07-10 08:24:00,
2013-07-10 04:29:00,69.9,69.6,29.95,SSE,167,0.0,0.0,99,0.00,,,0.01,0,Wunderground v.1.15,2013-07-10 08:29:00,
2013-07-10 04:39:00,69.8,69.8,29.95,SSE,167,0.0,0.0,100,0.00,,,0.01,0,Wunderground v.1.15,2013-07-10 08:39:00,
2013-07-10 04:49:00,69.8,69.5,29.95,SSE,167,0.0,0.0,99,0.00,,,0.01,0,Wunderground v.1.15,2013-07-10 08:49:00,
2013-07-10 04:54:00,69.7,69.7,29.95,SSE,167,0.0,0.0,100,0.00,,,0.01,0,Wunderground v.1.15,2013-07-10 08:54:00,
2013-07-10 05:04:00,69.6,69.6,29.95,SSE,167,0.0,0.0,100,0.00,,,0.01,0,Wunderground v.1.15,2013-07-10 09:04:00,
2013-07-10 05:09:00,69.5,69.5,29.95,SSE,167,0.0,0.0,100,0.00,,,0.01,0,Wunderground v.1.15,2013-07-10 09:09:00,
2013-07-10 05:19:00,69.4,69.4,29.95,SSE,167,0.0,0.0,100,0.00,,,0.01,0,Wunderground v.1.15,2013-07-10 09:19:00,
2013-07-10 05:29:00,69.3,69.3,29.95,SSE,167,0.0,0.0,100,0.00,,,0.01,0,Wunderground v.1.15,2013-07-10 09:29:00,
2013-07-10 05:39:00,69.2,68.9,29.95,SSE,167,0.0,0.0,99,0.00,,,0.01,5,Wunderground v.1.15,2013-07-10 09:39:00,
2013-07-10 05:44:00,69.2,68.9,29.95,SSE,167,0.0,0.0,99,0.00,,,0.01,5,Wunderground v.1.15,2013-07-10 09:44:00,
2013-07-10 05:54:00,69.2,69.2,29.95,SSE,167,0.0,0.0,100,0.00,,,0.01,11,Wunderground v.1.15,2013-07-10 09:54:00,
2013-07-10 05:59:00,69.2,69.2,29.96,SSE,167,0.0,0.0,100,0.00,,,0.01,11,Wunderground v.1.15,2013-07-10 09:59:00,
2013-07-10 06:09:00,69.3,69.3,29.95,SW,223,0.0,1.0,100,0.00,,,0.01,19,Wunderground v.1.15,2013-07-10 10:09:00,
2013-07-10 06:19:00,69.4,69.4,29.95,SE,127,0.0,0.0,100,0.00,,,0.01,16,Wunderground v.1.15,2013-07-10 10:19:00,
2013-07-10 06:29:00,69.4,69.4,29.95,SE,127,0.0,0.0,100,0.00,,,0.01,25,Wunderground v.1.15,2013-07-10 10:29:00,
2013-07-10 06:34:00,69.5,69.5,29.95,SE,141,0.0,1.0,100,0.00,,,0.01,25,Wunderground v.1.15,2013-07-10 10:34:00,
2013-07-10 06:44:00,69.6,69.6,29.95,SE,141,0.0,0.0,100,0.00,,,0.01,30,Wunderground v.1.15,2013-07-10 10:44:00,
2013-07-10 06:54:00,69.7,69.7,29.95,SSE,148,0.0,1.0,100,0.00,,,0.01,49,Wunderground v.1.15,2013-07-10 10:54:00,
2013-07-10 06:59:00,69.8,69.8,29.95,SSE,148,0.0,1.0,100,0.00,,,0.01,47,Wunderground v.1.15,2013-07-10 10:59:00,
2013-07-10 07:04:00,69.9,69.9,29.95,SSE,148,0.0,0.0,100,0.00,,,0.01,79,Wunderground v.1.15,2013-07-10 11:04:00,
2013-07-10 07:09:00,70.0,70.0,29.95,SSE,148,0.0,0.0,100,0.00,,,0.01,107,Wunderground v.1.15,2013-07-10 11:09:00,
2013-07-10 07:19:00,70.3,70.3,29.95,SSE,155,0.0,0.0,100,0.00,,,0.01,107,Wunderground v.1.15,2013-07-10 11:19:00,
2013-07-10 07:24:00,70.4,70.4,29.94,ENE,57,0.0,0.0,100,0.00,,,0.01,91,Wunderground v.1.15,2013-07-10 11:24:00,
2013-07-10 07:34:00,70.4,70.4,29.94,SSW,208,0.0,0.0,100,0.00,,,0.01,39,Wunderground v.1.15,2013-07-10 11:34:00,
2013-07-10 07:39:00,70.5,70.5,29.94,SSW,208,0.0,0.0,100,0.00,,,0.01,97,Wunderground v.1.15,2013-07-10 11:39:00,
2013-07-10 07:44:00,70.6,70.6,29.94,SSW,208,0.0,0.0,100,0.00,,,0.01,100,Wunderground v.1.15,2013-07-10 11:44:00,
2013-07-10 07:49:00,70.7,70.7,29.94,SSW,208,0.0,0.0,100,0.00,,,0.01,91,Wunderground v.1.15,2013-07-10 11:49:00,
2013-07-10 07:54:00,70.9,70.9,29.94,SSW,208,0.0,0.0,100,0.00,,,0.01,176,Wunderground v.1.15,2013-07-10 11:54:00,
2013-07-10 07:59:00,71.2,71.2,29.94,SSW,208,0.0,0.0,100,0.00,,,0.01,146,Wunderground v.1.15,2013-07-10 11:59:00,
2013-07-10 08:04:00,71.4,71.4,29.94,SE,127,1.0,1.0,100,0.00,,,0.01,146,Wunderground v.1.15,2013-07-10 12:04:00,
2013-07-10 08:09:00,71.5,71.5,29.94,South,169,1.0,1.0,100,0.00,,,0.01,88,Wunderground v.1.15,2013-07-10 12:09:00,
2013-07-10 08:19:00,71.5,71.5,29.94,SSE,154,0.0,0.0,100,0.00,,,0.01,141,Wunderground v.1.15,2013-07-10 12:19:00,
2013-07-10 08:29:00,71.9,71.9,29.94,SSE,155,0.0,0.0,100,0.00,,,0.01,155,Wunderground v.1.15,2013-07-10 12:29:00,
2013-07-10 08:34:00,72.1,72.1,29.94,SSE,155,0.0,0.0,100,0.00,,,0.01,160,Wunderground v.1.15,2013-07-10 12:34:00,
2013-07-10 08:44:00,72.8,72.8,29.94,SSE,157,0.0,0.0,100,0.00,,,0.01,376,Wunderground v.1.15,2013-07-10 12:44:00,
2013-07-10 08:54:00,73.9,73.6,29.93,SSW,199,0.0,3.0,99,0.00,,,0.01,241,Wunderground v.1.15,2013-07-10 12:54:00,
2013-07-10 09:04:00,75.0,73.8,29.93,SE,137,1.0,1.0,96,0.00,,,0.01,285,Wunderground v.1.15,2013-07-10 13:04:00,
2013-07-10 09:14:00,75.5,73.7,29.92,South,175,1.0,1.0,94,0.00,,,0.01,295,Wunderground v.1.15,2013-07-10 13:14:00,
2013-07-10 09:19:00,75.8,73.9,29.92,SE,134,1.0,1.0,94,0.00,,,0.01,281,Wunderground v.1.15,2013-07-10 13:19:00,
2013-07-10 09:24:00,75.9,74.0,29.92,SE,129,1.0,1.0,94,0.00,,,0.01,183,Wunderground v.1.15,2013-07-10 13:24:00,
2013-07-10 09:34:00,77.0,74.8,29.92,East,101,2.0,2.0,93,0.00,,,0.01,355,Wunderground v.1.15,2013-07-10 13:34:00,
2013-07-10 09:39:00,77.2,74.7,29.91,SSW,203,2.0,2.0,92,0.00,,,0.01,199,Wunderground v.1.15,2013-07-10 13:39:00,
2013-07-10 09:44:00,77.4,74.9,29.91,SSE,168,1.0,1.0,92,0.00,,,0.01,622,Wunderground v.1.15,2013-07-10 13:44:00,
2013-07-10 09:49:00,77.6,74.8,29.91,SSE,153,1.0,1.0,91,0.00,,,0.01,795,Wunderground v.1.15,2013-07-10 13:49:00,
2013-07-10 09:59:00,78.3,75.5,29.91,ENE,78,2.0,2.0,91,0.00,,,0.01,462,Wunderground v.1.15,2013-07-10 13:59:00,
2013-07-10 10:04:00,78.8,75.3,29.91,SE,131,2.0,4.0,89,0.00,,,0.01,302,Wunderground v.1.15,2013-07-10 14:04:00,
2013-07-10 10:14:00,78.5,74.3,29.91,SSE,162,2.0,2.0,87,0.00,,,0.01,72,Wunderground v.1.15,2013-07-10 14:14:00,
2013-07-10 10:19:00,77.7,74.2,29.91,East,81,1.0,5.0,89,0.00,,,0.01,671,Wunderground v.1.15,2013-07-10 14:19:00,
2013-07-10 10:29:00,78.5,75.3,29.90,SE,135,3.0,7.0,90,0.00,,,0.01,348,Wunderground v.1.15,2013-07-10 14:29:00,
2013-07-10 10:34:00,78.5,75.0,29.90,East,101,3.0,3.0,89,0.00,,,0.01,394,Wunderground v.1.15,2013-07-10 14:34:00,
2013-07-10 10:39:00,79.1,75.6,29.90,SSW,203,3.0,6.0,89,0.00,,,0.01,206,Wunderground v.1.15,2013-07-10 14:39:00,
2013-07-10 10:44:00,78.8,74.6,29.90,SSE,155,3.0,3.0,87,0.00,,,0.01,353,Wunderground v.1.15,2013-07-10 14:44:00,
2013-07-10 10:49:00,79.3,75.4,29.90,SSE,150,3.0,4.0,88,0.00,,,0.01,879,Wunderground v.1.15,2013-07-10 14:49:00,
2013-07-10 10:59:00,79.2,75.3,29.90,SE,133,3.0,4.0,88,0.00,,,0.01,279,Wunderground v.1.15,2013-07-10 14:59:00,
2013-07-10 11:09:00,78.9,75.0,29.89,SE,129,3.0,3.0,88,0.00,,,0.01,255,Wunderground v.1.15,2013-07-10 15:09:00,
2013-07-10 11:14:00,79.0,75.1,29.89,ENE,67,2.0,2.0,88,0.00,,,0.01,415,Wunderground v.1.15,2013-07-10 15:14:00,
2013-07-10 11:19:00,78.9,75.0,29.89,ENE,74,3.0,3.0,88,0.00,,,0.01,339,Wunderground v.1.15,2013-07-10 15:19:00,
2013-07-10 11:24:00,79.7,76.8,29.89,East,80,2.0,3.0,91,0.00,,,0.01,577,Wunderground v.1.15,2013-07-10 15:24:00,
2013-07-10 11:34:00,80.5,76.3,29.89,SSE,147,3.0,3.0,87,0.00,,,0.01,599,Wunderground v.1.15,2013-07-10 15:34:00,
2013-07-10 11:44:00,81.5,75.1,29.88,East,96,3.0,3.0,81,0.00,,,0.01,759,Wunderground v.1.15,2013-07-10 15:44:00,
2013-07-10 11:49:00,81.2,75.5,29.88,East,100,3.0,3.0,83,0.00,,,0.01,153,Wunderground v.1.15,2013-07-10 15:49:00,
2013-07-10 11:59:00,80.4,75.5,29.88,North,355,2.0,6.0,85,0.00,,,0.01,174,Wunderground v.1.15,2013-07-10 15:59:00,
2013-07-10 12:04:00,81.0,76.4,29.87,SSE,167,3.0,3.0,86,0.00,,,0.01,325,Wunderground v.1.15,2013-07-10 16:04:00,
2013-07-10 12:09:00,80.9,76.0,29.87,South,189,2.0,3.0,85,0.00,,,0.01,84,Wunderground v.1.15,2013-07-10 16:09:00,
2013-07-10 12:14:00,80.5,75.6,29.88,WSW,252,2.0,2.0,85,0.00,,,0.01,199,Wunderground v.1.15,2013-07-10 16:14:00,
2013-07-10 12:19:00,80.3,75.7,29.87,South,187,1.0,2.0,86,0.00,,,0.01,274,Wunderground v.1.15,2013-07-10 16:19:00,
2013-07-10 12:29:00,80.2,75.3,29.87,SE,124,2.0,4.0,85,0.00,,,0.02,42,Wunderground v.1.15,2013-07-10 16:29:00,
2013-07-10 12:39:00,79.1,75.2,29.86,SSE,154,1.0,1.0,88,0.20,,,0.14,102,Wunderground v.1.15,2013-07-10 16:39:00,
2013-07-10 12:44:00,78.7,75.2,29.86,SSE,156,0.0,1.0,89,0.08,,,0.14,63,Wunderground v.1.15,2013-07-10 16:44:00,
2013-07-10 12:54:00,77.3,75.1,29.86,WNW,291,1.0,2.0,93,0.00,,,0.14,98,Wunderground v.1.15,2013-07-10 16:54:00,
2013-07-10 12:59:00,77.0,74.8,29.86,NW,321,1.0,2.0,93,0.00,,,0.14,132,Wunderground v.1.15,2013-07-10 16:59:00,
2013-07-10 13:09:00,77.0,75.1,29.86,SSE,157,0.0,1.0,94,0.00,,,0.14,151,Wunderground v.1.15,2013-07-10 17:09:00,
2013-07-10 13:19:00,76.9,75.4,29.85,WNW,293,0.0,0.0,95,0.00,,,0.14,141,Wunderground v.1.15,2013-07-10 17:19:00,
2013-07-10 13:24:00,76.9,75.4,29.86,SE,130,0.0,1.0,95,0.00,,,0.14,76,Wunderground v.1.15,2013-07-10 17:24:00,
2013-07-10 13:29:00,76.7,75.2,29.85,South,188,1.0,1.0,95,0.00,,,0.14,246,Wunderground v.1.15,2013-07-10 17:29:00,
2013-07-10 13:34:00,76.2,74.3,29.85,SSE,159,2.0,3.0,94,0.00,,,0.14,116,Wunderground v.1.15,2013-07-10 17:34:00,
2013-07-10 13:39:00,75.2,73.7,29.84,SE,141,2.0,3.0,95,0.00,,,0.14,608,Wunderground v.1.15,2013-07-10 17:39:00,
2013-07-10 13:49:00,76.9,75.7,29.84,South,188,2.0,2.0,96,0.00,,,0.14,575,Wunderground v.1.15,2013-07-10 17:49:00,
2013-07-10 13:54:00,77.0,74.5,29.84,SE,124,2.0,2.0,92,0.00,,,0.14,276,Wunderground v.1.15,2013-07-10 17:54:00,
2013-07-10 13:59:00,77.3,75.1,29.84,South,184,1.0,2.0,93,0.00,,,0.14,220,Wunderground v.1.15,2013-07-10 17:59:00,
2013-07-10 14:04:00,77.2,74.7,29.84,SE,144,1.0,2.0,92,0.00,,,0.14,220,Wunderground v.1.15,2013-07-10 18:04:00,
2013-07-10 14:09:00,77.1,74.9,29.84,SSE,148,1.0,2.0,93,0.00,,,0.14,278,Wunderground v.1.15,2013-07-10 18:09:00,
2013-07-10 14:14:00,77.1,75.2,29.85,South,169,1.0,1.0,94,0.00,,,0.15,149,Wunderground v.1.15,2013-07-10 18:14:00,
2013-07-10 14:19:00,76.8,74.6,29.84,ESE,105,1.0,3.0,93,0.64,,,0.22,53,Wunderground v.1.15,2013-07-10 18:19:00,
2013-07-10 14:29:00,75.9,73.4,29.84,East,83,1.0,2.0,92,0.23,,,0.32,76,Wunderground v.1.15,2013-07-10 18:29:00,
2013-07-10 14:34:00,75.5,73.3,29.83,SSE,165,1.0,1.0,93,0.58,,,0.39,113,Wunderground v.1.15,2013-07-10 18:34:00,
2013-07-10 14:39:00,75.2,73.0,29.83,WSW,256,1.0,1.0,93,0.10,,,0.39,98,Wunderground v.1.15,2013-07-10 18:39:00,
2013-07-10 14:49:00,74.8,73.0,29.83,SSE,148,1.0,1.0,94,0.04,,,0.39,128,Wunderground v.1.15,2013-07-10 18:49:00,
2013-07-10 14:59:00,74.6,73.1,29.82,SSE,152,0.0,0.0,95,0.00,,,0.39,232,Wunderground v.1.15,2013-07-10 18:59:00,
2013-07-10 15:04:00,74.8,73.6,29.82,SSE,154,0.0,0.0,96,0.00,,,0.39,209,Wunderground v.1.15,2013-07-10 19:04:00,
2013-07-10 15:14:00,74.9,74.0,29.82,SE,126,1.0,1.0,97,0.00,,,0.39,148,Wunderground v.1.15,2013-07-10 19:14:00,
2013-07-10 15:19:00,74.9,74.0,29.81,SE,126,1.0,1.0,97,0.00,,,0.39,74,Wunderground v.1.15,2013-07-10 19:19:00,
2013-07-10 15:24:00,74.8,73.9,29.81,SE,126,0.0,0.0,97,0.00,,,0.39,37,Wunderground v.1.15,2013-07-10 19:24:00,
2013-07-10 15:29:00,74.8,73.9,29.81,SE,126,0.0,0.0,97,0.51,,,0.45,12,Wunderground v.1.15,2013-07-10 19:29:00,
2013-07-10 15:34:00,74.8,73.9,29.82,SE,126,0.0,1.0,97,3.25,,,0.52,7,Wunderground v.1.15,2013-07-10 19:34:00,
2013-07-10 15:44:00,74.0,72.8,29.81,WNW,298,1.0,1.0,96,0.90,,,0.99,40,Wunderground v.1.15,2013-07-10 19:44:00,
2013-07-10 15:49:00,73.5,72.3,29.81,NNE,17,1.0,3.0,96,0.17,,,1.02,74,Wunderground v.1.15,2013-07-10 19:49:00,
2013-07-10 15:59:00,73.4,72.5,29.81,NNE,17,1.0,1.0,97,0.08,,,1.03,403,Wunderground v.1.15,2013-07-10 19:59:00,
2013-07-10 16:09:00,75.4,74.8,29.81,SSE,153,0.0,0.0,98,0.04,,,1.03,589,Wunderground v.1.15,2013-07-10 20:09:00,
2013-07-10 16:19:00,76.2,75.3,29.81,SSE,161,1.0,1.0,97,0.00,,,1.03,167,Wunderground v.1.15,2013-07-10 20:19:00,
2013-07-10 16:24:00,76.2,75.3,29.81,SSE,168,1.0,2.0,97,0.00,,,1.03,313,Wunderground v.1.15,2013-07-10 20:24:00,
2013-07-10 16:34:00,76.3,75.1,29.80,SSW,204,0.0,0.0,96,0.00,,,1.03,192,Wunderground v.1.15,2013-07-10 20:34:00,
2013-07-10 16:39:00,76.3,75.1,29.79,South,184,0.0,0.0,96,0.00,,,1.03,167,Wunderground v.1.15,2013-07-10 20:39:00,
2013-07-10 16:44:00,76.0,74.8,29.79,South,174,0.0,0.0,96,0.00,,,1.03,153,Wunderground v.1.15,2013-07-10 20:44:00,
2013-07-10 16:49:00,76.0,74.8,29.79,South,174,0.0,1.0,96,0.00,,,1.03,146,Wunderground v.1.15,2013-07-10 20:49:00,
2013-07-10 16:54:00,76.0,74.8,29.79,South,190,0.0,0.0,96,0.00,,,1.03,104,Wunderground v.1.15,2013-07-10 20:54:00,
2013-07-10 17:04:00,76.0,74.8,29.79,South,190,0.0,0.0,96,0.00,,,1.03,63,Wunderground v.1.15,2013-07-10 21:04:00,
2013-07-10 17:09:00,75.9,74.7,29.79,South,190,0.0,1.0,96,0.00,,,1.03,79,Wunderground v.1.15,2013-07-10 21:09:00,
2013-07-10 17:19:00,75.7,74.5,29.79,East,100,0.0,0.0,96,0.00,,,1.03,95,Wunderground v.1.15,2013-07-10 21:19:00,
2013-07-10 17:29:00,75.3,74.1,29.78,SSE,150,1.0,1.0,96,0.00,,,1.04,102,Wunderground v.1.15,2013-07-10 21:29:00,
2013-07-10 17:34:00,75.1,73.9,29.78,NNW,346,1.0,1.0,96,0.00,,,1.04,125,Wunderground v.1.15,2013-07-10 21:34:00,
2013-07-10 17:39:00,75.1,74.2,29.78,SSE,159,1.0,1.0,97,0.00,,,1.04,185,Wunderground v.1.15,2013-07-10 21:39:00,
2013-07-10 17:44:00,75.1,74.2,29.77,SSE,159,0.0,0.0,97,0.00,,,1.04,197,Wunderground v.1.15,2013-07-10 21:44:00,
2013-07-10 17:49:00,75.0,74.1,29.78,SE,129,1.0,1.0,97,0.00,,,1.04,176,Wunderground v.1.15,2013-07-10 21:49:00,
2013-07-10 17:59:00,75.3,74.4,29.78,SSW,209,0.0,4.0,97,0.00,,,1.04,155,Wunderground v.1.15,2013-07-10 21:59:00,
2013-07-10 18:04:00,75.2,74.3,29.79,North,351,1.0,1.0,97,0.00,,,1.04,113,Wunderground v.1.15,2013-07-10 22:04:00,
2013-07-10 18:09:00,75.0,74.1,29.79,ESE,122,1.0,1.0,97,0.00,,,1.04,114,Wunderground v.1.15,2013-07-10 22:09:00,
2013-07-10 18:19:00,75.0,74.1,29.78,ESE,108,0.0,1.0,97,0.00,,,1.04,120,Wunderground v.1.15,2013-07-10 22:19:00,
2013-07-10 18:24:00,75.0,74.1,29.78,ESE,108,0.0,0.0,97,0.00,,,1.04,105,Wunderground v.1.15,2013-07-10 22:24:00,
2013-07-10 18:29:00,74.9,74.0,29.78,ESE,121,0.0,0.0,97,0.00,,,1.04,118,Wunderground v.1.15,2013-07-10 22:29:00,
2013-07-10 18:34:00,75.0,74.1,29.78,SE,126,0.0,0.0,97,0.00,,,1.04,104,Wunderground v.1.15,2013-07-10 22:34:00,
2013-07-10 18:44:00,74.9,74.0,29.79,SSE,167,0.0,0.0,97,0.00,,,1.04,69,Wunderground v.1.15,2013-07-10 22:44:00,
2013-07-10 18:49:00,74.8,73.9,29.79,SSE,166,0.0,0.0,97,0.00,,,1.04,58,Wunderground v.1.15,2013-07-10 22:49:00,
2013-07-10 18:59:00,74.7,73.8,29.80,South,188,0.0,1.0,97,0.00,,,1.04,56,Wunderground v.1.15,2013-07-10 22:59:00,
2013-07-10 19:04:00,74.6,73.7,29.80,South,187,0.0,0.0,97,0.00,,,1.04,47,Wunderground v.1.15,2013-07-10 23:04:00,
2013-07-10 19:09:00,74.5,73.6,29.80,South,187,0.0,0.0,97,0.00,,,1.04,33,Wunderground v.1.15,2013-07-10 23:09:00,
2013-07-10 19:14:00,74.5,73.6,29.80,South,187,0.0,0.0,97,0.00,,,1.04,21,Wunderground v.1.15,2013-07-10 23:14:00,
2013-07-10 19:24:00,74.3,73.4,29.80,SSE,167,0.0,0.0,97,0.00,,,1.04,12,Wunderground v.1.15,2013-07-10 23:24:00,
2013-07-10 19:29:00,74.2,73.3,29.80,South,172,0.0,0.0,97,0.00,,,1.04,16,Wunderground v.1.15,2013-07-10 23:29:00,
2013-07-10 19:34:00,74.0,73.1,29.80,South,172,0.0,0.0,97,0.00,,,1.04,21,Wunderground v.1.15,2013-07-10 23:34:00,
2013-07-10 19:44:00,73.7,72.8,29.81,South,172,0.0,0.0,97,0.00,,,1.04,14,Wunderground v.1.15,2013-07-10 23:44:00,
2013-07-10 19:49:00,73.6,72.7,29.81,SW,222,0.0,0.0,97,0.00,,,1.04,14,Wunderground v.1.15,2013-07-10 23:49:00,
2013-07-10 19:54:00,73.5,72.6,29.81,SW,222,0.0,0.0,97,0.00,,,1.04,12,Wunderground v.1.15,2013-07-10 23:54:00,
2013-07-10 19:59:00,73.4,72.5,29.81,SW,222,0.0,0.0,97,0.00,,,1.04,9,Wunderground v.1.15,2013-07-10 23:59:00,
2013-07-10 20:04:00,73.3,72.7,29.81,SW,222,0.0,0.0,98,0.00,,,1.04,9,Wunderground v.1.15,2013-07-11 00:04:00,
2013-07-10 20:14:00,73.1,72.5,29.81,SW,222,0.0,0.0,98,0.00,,,1.04,7,Wunderground v.1.15,2013-07-11 00:14:00,
2013-07-10 20:19:00,73.0,72.4,29.81,SW,222,0.0,0.0,98,0.00,,,1.04,0,Wunderground v.1.15,2013-07-11 00:19:00,
2013-07-10 20:29:00,72.9,72.3,29.80,SW,222,0.0,0.0,98,0.00,,,1.04,0,Wunderground v.1.15,2013-07-11 00:29:00,
2013-07-10 20:34:00,72.8,72.2,29.81,SW,222,0.0,0.0,98,0.00,,,1.04,0,Wunderground v.1.15,2013-07-11 00:34:00,
2013-07-10 20:39:00,72.7,72.1,29.80,SW,222,0.0,0.0,98,0.00,,,1.04,0,Wunderground v.1.15,2013-07-11 00:39:00,
2013-07-10 20:44:00,72.6,72.0,29.80,SW,222,0.0,0.0,98,0.00,,,1.04,0,Wunderground v.1.15,2013-07-11 00:44:00,
2013-07-10 20:49:00,72.5,71.9,29.80,SW,222,0.0,0.0,98,0.00,,,1.04,0,Wunderground v.1.15,2013-07-11 00:49:00,
2013-07-10 20:54:00,72.4,71.8,29.80,SW,222,0.0,0.0,98,0.00,,,1.04,0,Wunderground v.1.15,2013-07-11 00:54:00,
2013-07-10 21:04:00,72.2,71.6,29.80,SW,220,0.0,0.0,98,0.00,,,1.04,0,Wunderground v.1.15,2013-07-11 01:04:00,
2013-07-10 21:09:00,72.1,71.5,29.80,SW,220,0.0,0.0,98,0.00,,,1.04,0,Wunderground v.1.15,2013-07-11 01:09:00,
2013-07-10 21:14:00,72.0,71.4,29.80,SW,220,0.0,0.0,98,0.00,,,1.04,0,Wunderground v.1.15,2013-07-11 01:14:00,
2013-07-10 21:24:00,71.9,71.3,29.81,SE,130,0.0,0.0,98,0.00,,,1.04,0,Wunderground v.1.15,2013-07-11 01:24:00,
2013-07-10 21:29:00,71.9,71.6,29.81,ESE,107,0.0,0.0,99,0.00,,,1.04,0,Wunderground v.1.15,2013-07-11 01:29:00,
2013-07-10 21:34:00,71.9,71.6,29.81,ESE,107,0.0,0.0,99,0.00,,,1.04,0,Wunderground v.1.15,2013-07-11 01:34:00,
2013-07-10 21:39:00,71.8,71.5,29.81,SE,133,0.0,1.0,99,0.00,,,1.04,0,Wunderground v.1.15,2013-07-11 01:39:00,
2013-07-10 21:49:00,71.8,71.5,29.81,SE,133,0.0,0.0,99,0.00,,,1.04,0,Wunderground v.1.15,2013-07-11 01:49:00,
2013-07-10 21:54:00,71.7,71.4,29.81,SE,133,0.0,0.0,99,0.00,,,1.04,0,Wunderground v.1.15,2013-07-11 01:54:00,
2013-07-10 21:59:00,71.7,71.4,29.81,SSE,150,0.0,0.0,99,0.00,,,1.04,0,Wunderground v.1.15,2013-07-11 01:59:00,
2013-07-10 22:04:00,71.7,71.4,29.81,WSW,255,0.0,2.0,99,0.00,,,1.04,0,Wunderground v.1.15,2013-07-11 02:04:00,
2013-07-10 22:09:00,71.6,71.3,29.81,WSW,255,0.0,2.0,99,0.00,,,1.04,0,Wunderground v.1.15,2013-07-11 02:09:00,
2013-07-10 22:19:00,71.5,71.2,29.81,East,88,1.0,1.0,99,0.00,,,1.04,0,Wunderground v.1.15,2013-07-11 02:19:00,
2013-07-10 22:24:00,71.5,71.2,29.81,East,88,0.0,0.0,99,0.00,,,1.04,0,Wunderground v.1.15,2013-07-11 02:24:00,
2013-07-10 22:29:00,71.4,71.1,29.81,East,88,0.0,1.0,99,0.00,,,1.04,0,Wunderground v.1.15,2013-07-11 02:29:00,
2013-07-10 22:34:00,71.4,71.1,29.82,East,88,1.0,1.0,99,0.00,,,1.04,0,Wunderground v.1.15,2013-07-11 02:34:00,
2013-07-10 22:39:00,71.3,71.0,29.82,East,88,1.0,1.0,99,0.00,,,1.04,0,Wunderground v.1.15,2013-07-11 02:39:00,
2013-07-10 22:49:00,71.2,70.9,29.81,East,96,1.0,2.0,99,0.00,,,1.04,0,Wunderground v.1.15,2013-07-11 02:49:00,
2013-07-10 22:54:00,71.2,70.9,29.81,ENE,67,1.0,1.0,99,0.00,,,1.04,0,Wunderground v.1.15,2013-07-11 02:54:00,
2013-07-10 22:59:00,71.2,70.9,29.81,ENE,68,1.0,1.0,99,0.00,,,1.04,0,Wunderground v.1.15,2013-07-11 02:59:00,
2013-07-10 23:04:00,71.2,70.9,29.81,South,169,1.0,1.0,99,0.00,,,1.04,0,Wunderground v.1.15,2013-07-11 03:04:00,
2013-07-10 23:09:00,71.1,70.8,29.81,North,360,1.0,1.0,99,0.00,,,1.04,0,Wunderground v.1.15,2013-07-11 03:09:00,
2013-07-10 23:19:00,71.0,70.7,29.81,SSE,165,0.0,1.0,99,0.00,,,1.04,0,Wunderground v.1.15,2013-07-11 03:19:00,
2013-07-10 23:24:00,71.0,70.7,29.80,ESE,111,1.0,1.0,99,0.00,,,1.04,0,Wunderground v.1.15,2013-07-11 03:24:00,
2013-07-10 23:29:00,71.0,70.7,29.81,SSE,154,1.0,1.0,99,0.00,,,1.04,0,Wunderground v.1.15,2013-07-11 03:29:00,
2013-07-10 23:39:00,70.8,70.5,29.80,ENE,61,0.0,1.0,99,0.00,,,1.04,0,Wunderground v.1.15,2013-07-11 03:39:00,
2013-07-10 23:49:00,70.7,70.4,29.79,ESE,118,1.0,1.0,99,0.00,,,1.04,0,Wunderground v.1.15,2013-07-11 03:49:00,
2013-07-10 23:54:00,70.6,70.3,29.79,ESE,122,1.0,1.0,99,0.00,,,1.04,0,Wunderground v.1.15,2013-07-11 03:54:00,
2013-07-10 23:59:00,70.6,70.3,29.79,SE,146,0.0,1.0,99,0.00,,,1.04,0,Wunderground v.1.15,2013-07-11 03:59:00,